Salina, Kansas
Current Conditions -  °F | °C
As of 2:53 AM on Saturday 29 Nov 2014 (Local Time) from KSLN Reporting Station
Clear Clear  
Wind Chill:   Ceiling: Unl
Heat Index:   Visibility: 10mi
Dew Point:   Wind: 5mph
Humidity: 82%   Direction: 180°S
Pressure: 29.66"   Gusts: NA
Location:  38.84°N, 97.61°W
Report Text: KSLN 290853Z AUTO 18004KT 10SM CLR 05/02 A2966 RMK AO2 SLP038 T00500022 58012
Loading
Personal Weather Stations






























Interactive Weather Map New forecast layout! Learn more

10-Day Weather Forecast

Advertisements
Track Severe Weather on mobile